Mostaganem Ville, Algeria

2:46 AM CET on March 07, 2015 (GMT +0100)
MARITIME | Change Station
CLOSE
Current Station
Personal Weather Station
Location: La Coruna,
Elevation: 0 ft
Nearby Weather Stations

Elev 0 ft 43.60 °N, 9.60 °W | Updated 12 days ago

Clear
Clear
42 °F
Feels Like 40 °F
N
5
Wind Variable Wind from ESE
Gusts mph

Today
High -- | Low -- °F
--% Chance of Precip.
Yesterday
High -- | Low -- °F
Precip. -- in
7:22 AM 6:59 PM
Full, 98% visible
Pressure 30.45 in
Visibility -9999.0 miles
Clouds
Windchill 40 °F
Dew Point 38 °F
Humidity 84%
Rainfall in
Snow Depth Not available.
UV Not available.
Pollen Not available.
Air Quality Not available.
Flu Activity Not available.
METAR DAOO 070130Z 04003KT CAVOK 08/04 Q1031

More Conditions Fewer Conditions

Pressure 30.45 in
Visibility -9999.0 miles
Clouds
Windchill 40 °F
Dew Point 38 °F
Humidity 84%
Rainfall in
Snow Depth Not available.
UV Not available.
Pollen Not available.
Air Quality Not available.
Flu Activity Not available.
METAR DAOO 070130Z 04003KT CAVOK 08/04 Q1031

More Conditions Fewer Conditions

10-Day Weather Forecast

Almanac

Astronomy

Mar. 07, 2015 Rise Set
Actual Time
Civil Twilight
Nautical Twilight
Astronomical Twilight
Moon
Length of Visible Light
Length of Day
Tomorrow will be .
, % of the Moon is Illuminated

Today's Extremes

Country Highs Country Lows

Community

WunderPhotos

Upload Photos

1,803,494 photos uploaded!

WunderBlogs® & News

Nearby

Air Quality

  Air Quality AQ Index Pollutant
Not available.

Snow Depth

Station Depth Elevation

Earthquake Activity

City Distance Mag. Time & Date
Minimum magnitude displayed is 2.5.

Coastal Water Temperatures

Place Temperature

Nearby Weather Stations